Hauptseite
METAR-TAF:

METAR-TAF

Flughäfen :

Fliegerhorst Neuburg

Neuburg, Deutschland

Breite: 48-43N, Länge: 011-13E, Höhe: 380 m

Beobachtung

Neuester Wetterbericht von vor 20 Minuten, um 04:20 UTC
Wind 5 kt aus West/Südwest
Temperatur 1°C
Luftfeuchtigkeit 93%
Luftdruck 1027 hPa
Sichtweite 10 km oder mehr
Aufgelockert bewölkt in der Höhe von 9000 ft

METAR: ETSN 210420Z 24005KT 9999 SCT090 01/00 Q1027 BLU+

Zeit: 05:40 (04:40 UTC)

Prognose

Neuester Wetterbericht von vor 9 Stunden und 20 Minuten, um 19:20 UTC
Gültige Prognose vom 20 um 19 UTC bis 20 um 24 UTC
Wind 4 kt aus West/Nordwest
Sichtweite: 1920 m
Leicht bewölkt in der Höhe von 3000 ft
Durchbrochene Bewölkung in der Höhe von 12000 ft

TAF: ETSN 201920Z 2019/2024 29004KT 9999 NSW FEW030 BKN120 CANCEL 1920 BY ETGL

Wetterbeobachtungen und Prognosen von mehr als 4000 Flughäfen (METAR und TAF Bericht).

Die verfügbaren Stationen werden durch gelbe und rote Markierungen auf der Karte dargestellt.

Führen Sie die Maus auf sie, um den Namen der Station zu sehen.

Darauf klicken, um die Beobachtung von Wetterbeobachtungen und Prognosen zu sehen.

Um die Karte zu ändern : klicken Sie auf den grünen Tasten mit einem schwarzen Kreuz Zum Vergrößern, auf den grünen Button mit einem Gedankenstrich zu verkleinern, oder auf die grünen Pfeile für benachbarte Karten.


METAR-TAF: